createdAt,value
2023-02-24T01:02:56.295Z,7.40
2023-02-24T01:22:41.213Z,10.25
2023-02-24T01:41:07.252Z,9.70
2023-02-24T01:47:33.586Z,7.75
2023-02-24T02:07:55.634Z,6.50
2023-02-24T04:00:07.245Z,13.50
2023-02-24T04:11:26.366Z,9.88
2023-02-24T04:16:29.104Z,10.53
2023-02-24T04:21:28.240Z,11.93
2023-02-24T04:26:25.369Z,13.93
2023-02-24T04:31:24.829Z,12.60
2023-02-24T04:36:20.660Z,16.13
2023-02-24T04:41:23.784Z,19.03
2023-02-24T04:46:17.544Z,16.70
2023-02-24T04:51:10.967Z,13.70
2023-02-24T04:56:09.452Z,14.27
2023-02-24T05:01:15.167Z,14.83
2023-02-24T05:06:17.500Z,16.20
2023-02-24T05:11:16.376Z,19.87
2023-02-24T05:16:13.013Z,16.00
2023-02-24T05:21:25.439Z,14.93
2023-02-24T05:26:22.628Z,16.17
2023-02-24T05:31:24.386Z,15.30
2023-02-24T05:36:22.975Z,14.90
2023-02-24T05:41:32.730Z,11.63
2023-02-24T05:46:32.734Z,14.40
2023-02-24T05:51:46.984Z,15.45
2023-02-24T05:56:45.234Z,14.23
2023-02-24T06:01:47.373Z,14.07
2023-02-24T06:06:44.895Z,11.35
2023-02-24T06:11:52.084Z,14.10
2023-02-24T06:16:52.257Z,14.23
2023-02-24T06:21:48.340Z,14.17
2023-02-24T06:26:51.091Z,11.95
2023-02-24T06:31:55.118Z,9.82
2023-02-24T06:36:54.145Z,10.20
2023-02-24T06:41:54.245Z,9.38
2023-02-24T06:47:02.308Z,20.70
2023-02-24T06:52:56.202Z,15.00
2023-02-24T06:58:08.728Z,13.32
2023-02-24T07:03:19.230Z,9.68
2023-02-24T07:08:38.490Z,10.73
2023-02-24T07:13:52.828Z,9.70
2023-02-24T07:18:52.350Z,22.02
2023-02-24T07:23:58.776Z,19.92
2023-02-24T07:28:58.881Z,19.90
2023-02-24T07:34:11.401Z,18.33
2023-02-24T07:39:09.722Z,12.75
2023-02-24T07:49:09.663Z,13.52
2023-02-24T07:54:03.596Z,15.23
2023-02-24T07:59:00.494Z,15.90
2023-02-24T08:03:57.742Z,17.40
2023-02-24T08:08:59.318Z,17.25
2023-02-24T08:13:52.704Z,16.48
2023-02-24T08:18:49.201Z,18.60
2023-02-24T08:23:45.791Z,19.92
2023-02-24T08:28:39.511Z,12.70
2023-02-24T08:33:32.962Z,17.42
2023-02-24T08:38:28.521Z,16.48
2023-02-24T08:43:33.194Z,13.20
2023-02-24T08:48:32.562Z,15.45
2023-02-24T08:53:31.553Z,14.32
2023-02-24T08:58:28.118Z,18.52
2023-02-24T09:03:29.651Z,19.85
2023-02-24T09:08:24.340Z,17.23
2023-02-24T09:13:19.000Z,18.80
2023-02-24T09:18:14.586Z,16.80
2023-02-24T09:23:08.942Z,18.35
2023-02-24T09:28:09.014Z,17.88
2023-02-24T09:33:02.565Z,17.90
2023-02-24T09:38:00.334Z,18.83
2023-02-24T09:42:58.475Z,17.30
2023-02-24T09:47:57.250Z,20.00
2023-02-24T09:52:57.594Z,21.17
2023-02-24T09:58:43.280Z,17.60
2023-02-24T10:03:48.280Z,20.42
2023-02-24T10:08:47.552Z,21.65
2023-02-24T10:13:48.749Z,17.65
2023-02-24T10:18:47.003Z,16.75
2023-02-24T10:23:56.798Z,17.10
2023-02-24T10:28:58.576Z,17.47
2023-02-24T10:33:56.890Z,20.08
2023-02-24T10:38:50.897Z,18.63
2023-02-24T10:43:56.787Z,16.40
2023-02-24T10:48:53.556Z,18.98
2023-02-24T10:53:53.470Z,20.25
2023-02-24T10:58:56.780Z,18.95
2023-02-24T11:04:02.700Z,19.50
2023-02-24T11:09:19.142Z,22.77
2023-02-24T11:14:36.117Z,20.67
2023-02-24T11:19:33.954Z,16.38
2023-02-24T11:24:29.110Z,56.42
2023-02-24T11:29:39.757Z,22.73
2023-02-24T11:34:49.522Z,24.77
2023-02-24T11:39:53.370Z,18.00
2023-02-24T11:44:55.570Z,24.33
2023-02-24T11:49:55.028Z,20.50
2023-02-24T11:54:53.585Z,17.92
2023-02-24T11:59:54.106Z,16.45
2023-02-24T12:09:54.951Z,17.70
2023-02-24T12:14:54.568Z,19.35
2023-02-24T12:19:57.568Z,20.58
2023-02-24T12:24:54.787Z,16.58
2023-02-24T12:29:57.290Z,23.48
2023-02-24T12:34:58.503Z,39.78
2023-02-24T12:40:05.716Z,23.63
2023-02-24T12:45:05.076Z,20.85
2023-02-24T12:50:19.155Z,20.65
2023-02-24T12:55:22.760Z,29.88
2023-02-24T13:00:25.136Z,18.95
2023-02-24T13:05:23.435Z,19.90
2023-02-24T13:10:30.710Z,19.05
2023-02-24T13:15:26.422Z,19.60
2023-02-24T13:20:32.591Z,40.97
2023-02-24T13:25:32.111Z,19.40
2023-02-24T13:30:29.841Z,18.93
2023-02-24T13:35:34.652Z,19.48
2023-02-24T13:40:29.571Z,20.30
2023-02-24T13:45:23.252Z,19.50
2023-02-24T13:50:26.381Z,17.95
2023-02-24T13:55:39.827Z,13.73
2023-02-24T14:00:52.544Z,18.98
2023-02-24T14:05:46.261Z,18.80
2023-02-24T14:10:47.279Z,25.48
2023-02-24T14:15:44.220Z,21.67
2023-02-24T14:20:39.789Z,18.25
2023-02-24T14:25:40.048Z,19.90
2023-02-24T14:30:37.486Z,17.77
2023-02-24T14:35:35.440Z,35.65
2023-02-24T14:40:29.159Z,27.92
2023-02-24T14:45:26.363Z,24.08
2023-02-24T14:50:25.643Z,24.52
2023-02-24T14:55:21.949Z,18.73
2023-02-24T15:00:24.155Z,21.58
2023-02-24T15:05:19.647Z,22.67
2023-02-24T15:10:22.714Z,23.35
2023-02-24T15:15:21.827Z,23.63
2023-02-24T15:20:33.801Z,19.95
2023-02-24T15:26:20.784Z,23.42
2023-02-24T15:45:57.567Z,26.27
2023-02-24T16:17:38.945Z,30.85
2023-02-24T18:40:00.207Z,42.53
2023-02-24T18:45:50.871Z,61.00
2023-02-24T18:51:20.467Z,104.07
2023-02-24T19:12:06.988Z,86.82
2023-02-24T23:30:58.680Z,94.20
2023-02-24T23:35:54.645Z,79.73
2023-02-24T23:40:53.069Z,93.30
2023-02-24T23:45:50.247Z,74.87
2023-02-24T23:50:48.990Z,62.30
2023-02-24T23:55:46.452Z,50.63
